Colorado Springs, CO (80921)

4:33 AM MDT on September 01, 2015 (GMT -0600)
Struthers Ranch | | Change Station
CLOSE
Current Station
Personal Weather Station
Location: Colorado Springs, CO
Elevation: 6867 ft
Nearby Weather Stations

Elev 6867 ft 39.04 °N, 104.83 °W | Updated 11 minutes ago

Partly Cloudy
Partly Cloudy
51.4 °F
Feels Like 51.4 °F
N
0.0
Wind Variable Wind from South

Today
High -- | Low -- °F
--% Chance of Precip.
Yesterday
High -- | Low -- °F
Precip. -- in
6:27 AM 7:30 PM
Waning Gibbous, 90% visible
Pressure 30.01 in
Visibility 10.0 miles
Clouds Clear
Dew Point 48 °F
Humidity 87%
Rainfall 0.00 in
Snow Depth Not available.
UV 0 out of 12
Pollen 10.00 out of 12
Air Quality Not available.
Flu Activity Not available.
METAR KAFF 010958Z AUTO 36005KT 10SM CLR 11/09 A3020 RMK AO2 SLP162 T01120089
Pressure 30.01 in
Visibility 10.0 miles
Clouds Clear
Dew Point 48 °F
Humidity 87%
Rainfall 0.00 in
Snow Depth Not available.
UV 0 out of 12
Pollen 10.00 out of 12
Air Quality Not available.
Flu Activity Not available.
METAR KAFF 010958Z AUTO 36005KT 10SM CLR 11/09 A3020 RMK AO2 SLP162 T01120089

10-Day Weather Forecast

×

Almanac

Astronomy

Sep. 01, 2015 Rise Set
Actual Time
Civil Twilight
Nautical Twilight
Astronomical Twilight
Moon
Length of Visible Light
Length of Day
Tomorrow will be .
, % of the Moon is Illuminated

Today's Extremes

State Highs State Lows

Community

WunderPhotos

Upload Photos

1,851,501 photos uploaded!

WunderBlogs® & News

Nearby

Air Quality

  Air Quality AQ Index Pollutant
Not available.

Snow Depth

Station Depth Elevation

Earthquake Activity

City Distance Mag. Time & Date
Minimum magnitude displayed is 2.5.

Coastal Water Temperatures

Place Temperature

Stations

Nearby Weather Stations

Station Location Temp. Windchill Dew Point Humidity Wind Precip. Elev Updated Type